createdAt,value
2023-01-20T00:01:13.368Z,15
2023-01-20T00:03:13.487Z,14
2023-01-20T00:05:13.789Z,15
2023-01-20T00:07:13.713Z,15
2023-01-20T00:09:13.783Z,15
2023-01-20T00:11:13.871Z,16
2023-01-20T00:15:14.398Z,18
2023-01-20T00:17:14.153Z,18
2023-01-20T00:19:14.306Z,17
2023-01-20T00:21:14.392Z,19
2023-01-20T00:23:14.492Z,18
2023-01-20T00:25:14.836Z,19
2023-01-20T00:27:14.725Z,19
2023-01-20T00:29:14.888Z,20
2023-01-20T00:31:14.983Z,19
2023-01-20T00:33:15.177Z,19
2023-01-20T00:35:15.441Z,20
2023-01-20T00:37:15.200Z,22
2023-01-20T00:39:15.298Z,24
2023-01-20T00:41:15.438Z,23
2023-01-20T00:43:15.513Z,24
2023-01-20T00:45:15.995Z,22
2023-01-20T00:47:15.705Z,22
2023-01-20T00:49:15.796Z,23
2023-01-20T00:51:15.891Z,24
2023-01-20T00:53:16.005Z,25
2023-01-20T00:55:16.167Z,23
2023-01-20T00:57:16.226Z,24
2023-01-20T00:59:16.282Z,25
2023-01-20T01:01:16.545Z,29
2023-01-20T01:03:16.527Z,33
2023-01-20T01:05:16.583Z,32
2023-01-20T01:07:16.688Z,27
2023-01-20T01:09:16.772Z,22
2023-01-20T01:11:16.869Z,18
2023-01-20T01:13:16.961Z,15
2023-01-20T01:15:17.071Z,11
2023-01-20T01:17:17.214Z,10
2023-01-20T01:19:17.269Z,11
2023-01-20T01:21:17.385Z,11
2023-01-20T01:23:17.481Z,8
2023-01-20T01:25:17.583Z,7
2023-01-20T01:27:17.645Z,8
2023-01-20T01:29:17.767Z,7
2023-01-20T01:31:17.912Z,7
2023-01-20T01:33:18.028Z,9
2023-01-20T01:35:18.017Z,9
2023-01-20T01:37:18.160Z,10
2023-01-20T01:39:18.247Z,8
2023-01-20T01:41:18.320Z,7
2023-01-20T01:43:18.425Z,7
2023-01-20T01:45:18.501Z,7
2023-01-20T01:47:18.598Z,7
2023-01-20T01:49:18.687Z,7
2023-01-20T01:51:18.789Z,5
2023-01-20T01:55:19.019Z,5
2023-01-20T01:57:19.110Z,5
2023-01-20T01:59:19.173Z,6
2023-01-20T02:01:19.399Z,6
2023-01-20T02:03:19.374Z,5
2023-01-20T02:05:19.540Z,5
2023-01-20T02:07:19.574Z,5
2023-01-20T02:09:19.661Z,5
2023-01-20T02:11:19.772Z,6
2023-01-20T02:15:19.943Z,5
2023-01-20T02:17:20.016Z,6
2023-01-20T02:19:20.158Z,7
2023-01-20T02:21:20.202Z,6
2023-01-20T02:23:20.209Z,7
2023-01-20T02:25:20.285Z,5
2023-01-20T02:27:20.375Z,6
2023-01-20T02:29:20.449Z,5
2023-01-20T02:31:20.574Z,5
2023-01-20T02:33:20.637Z,4
2023-01-20T02:35:20.720Z,4
2023-01-20T02:37:20.866Z,4
2023-01-20T02:39:27.282Z,4
2023-01-20T02:41:20.993Z,3
2023-01-20T02:43:21.066Z,4
2023-01-20T02:47:21.250Z,3
2023-01-20T02:49:21.359Z,4
2023-01-20T02:51:21.415Z,3
2023-01-20T02:55:21.611Z,3
2023-01-20T02:57:21.722Z,3
2023-01-20T02:59:21.767Z,4
2023-01-20T03:01:21.981Z,4
2023-01-20T03:03:21.976Z,4
2023-01-20T03:07:22.165Z,3
2023-01-20T03:09:22.411Z,3
2023-01-20T03:11:22.283Z,3
2023-01-20T03:13:22.380Z,4
2023-01-20T03:15:22.465Z,3
2023-01-20T03:17:22.562Z,3
2023-01-20T03:19:22.604Z,3
2023-01-20T03:21:22.700Z,2
2023-01-20T03:25:52.981Z,3
2023-01-20T03:29:53.206Z,3
2023-01-20T03:31:53.331Z,3
2023-01-20T03:33:53.418Z,3
2023-01-20T03:37:53.810Z,3
2023-01-20T03:39:53.758Z,3
2023-01-20T03:41:53.892Z,5
2023-01-20T03:43:53.980Z,4
2023-01-20T03:45:54.133Z,4
2023-01-20T03:47:54.163Z,3
2023-01-20T03:49:54.291Z,4
2023-01-20T03:51:54.386Z,4
2023-01-20T03:53:54.600Z,6
2023-01-20T03:55:54.623Z,5
2023-01-20T03:57:54.785Z,5
2023-01-20T03:59:54.856Z,4
2023-01-20T04:01:55.087Z,3
2023-01-20T04:05:55.184Z,3
2023-01-20T04:07:55.286Z,2
2023-01-20T04:09:55.416Z,3
2023-01-20T04:11:55.500Z,3
2023-01-20T04:13:55.618Z,3
2023-01-20T04:15:55.870Z,3
2023-01-20T04:17:55.871Z,3
2023-01-20T04:19:55.953Z,4
2023-01-20T04:21:56.067Z,4
2023-01-20T04:23:56.173Z,4
2023-01-20T04:25:56.240Z,5
2023-01-20T04:27:56.368Z,5
2023-01-20T04:29:56.477Z,5
2023-01-20T04:31:56.668Z,5
2023-01-20T04:33:56.724Z,4
2023-01-20T04:35:56.866Z,5
2023-01-20T04:37:57.027Z,6
2023-01-20T04:39:57.051Z,6
2023-01-20T04:43:57.269Z,6
2023-01-20T04:45:57.425Z,8
2023-01-20T04:47:57.510Z,10
2023-01-20T04:49:57.622Z,12
2023-01-20T04:51:57.712Z,13
2023-01-20T04:53:57.828Z,13
2023-01-20T04:55:57.925Z,13
2023-01-20T04:57:58.086Z,11
2023-01-20T04:59:58.151Z,10
2023-01-20T05:01:58.351Z,9
2023-01-20T05:03:58.361Z,8
2023-01-20T05:05:58.434Z,7
2023-01-20T05:07:58.542Z,7
2023-01-20T05:09:58.669Z,8
2023-01-20T05:11:58.782Z,8
2023-01-20T05:13:59.000Z,6
2023-01-20T05:16:00.674Z,6
2023-01-20T05:17:59.148Z,7
2023-01-20T05:19:59.230Z,7
2023-01-20T05:21:59.339Z,8
2023-01-20T05:23:59.461Z,7
2023-01-20T05:25:59.561Z,8
2023-01-20T05:29:59.769Z,7
2023-01-20T05:31:59.854Z,7
2023-01-20T05:33:59.978Z,6
2023-01-20T05:36:00.160Z,5
2023-01-20T05:38:00.250Z,6
2023-01-20T05:40:00.274Z,6
2023-01-20T05:42:00.410Z,6
2023-01-20T05:44:00.516Z,6
2023-01-20T05:46:00.592Z,6
2023-01-20T05:48:00.721Z,7
2023-01-20T05:50:00.792Z,10
2023-01-20T05:52:00.878Z,13
2023-01-20T05:54:00.999Z,9
2023-01-20T05:56:01.103Z,10
2023-01-20T05:58:01.243Z,11
2023-01-20T06:00:01.347Z,10
2023-01-20T06:02:01.382Z,11
2023-01-20T06:06:01.604Z,10
2023-01-20T06:08:01.754Z,9
2023-01-20T06:10:01.805Z,10
2023-01-20T06:12:01.913Z,11
2023-01-20T06:14:02.049Z,10
2023-01-20T06:16:02.187Z,9
2023-01-20T06:18:02.307Z,9
2023-01-20T06:20:02.353Z,8
2023-01-20T06:22:02.451Z,8
2023-01-20T06:24:02.575Z,7
2023-01-20T06:26:02.640Z,9
2023-01-20T06:30:02.862Z,8
2023-01-20T06:32:02.965Z,7
2023-01-20T06:34:03.159Z,7
2023-01-20T06:36:03.155Z,7
2023-01-20T06:38:03.281Z,8
2023-01-20T06:40:03.374Z,8
2023-01-20T06:42:03.487Z,9
2023-01-20T06:46:03.718Z,11
2023-01-20T06:48:03.801Z,8
2023-01-20T06:50:03.892Z,6
2023-01-20T06:52:04.042Z,10
2023-01-20T06:54:04.139Z,9
2023-01-20T06:56:04.253Z,8
2023-01-20T06:58:04.327Z,8
2023-01-20T07:00:04.469Z,13
2023-01-20T07:02:04.677Z,14
2023-01-20T07:04:04.650Z,36
2023-01-20T07:06:04.752Z,66
2023-01-20T07:08:04.827Z,145
2023-01-20T07:10:04.938Z,84
2023-01-20T07:12:05.070Z,72
2023-01-20T07:14:05.151Z,40
2023-01-20T07:16:05.322Z,11
2023-01-20T07:18:05.359Z,13
2023-01-20T07:20:05.475Z,11
2023-01-20T07:22:05.567Z,9
2023-01-20T07:24:05.670Z,8
2023-01-20T07:26:05.780Z,10
2023-01-20T07:28:05.863Z,8
2023-01-20T07:30:05.978Z,6
2023-01-20T07:32:06.067Z,7
2023-01-20T07:34:06.339Z,7
2023-01-20T07:36:06.269Z,8
2023-01-20T07:38:06.343Z,7
2023-01-20T07:40:06.434Z,11
2023-01-20T07:42:06.553Z,14
2023-01-20T07:44:06.648Z,17
2023-01-20T07:46:06.743Z,16
2023-01-20T07:48:06.834Z,16
2023-01-20T07:50:06.909Z,11
2023-01-20T07:52:07.006Z,10
2023-01-20T07:54:07.111Z,10
2023-01-20T07:56:07.301Z,4
2023-01-20T07:58:07.322Z,11
2023-01-20T08:00:07.422Z,8
2023-01-20T08:02:07.544Z,7
2023-01-20T08:04:07.606Z,6
2023-01-20T08:06:07.717Z,5
2023-01-20T08:08:07.804Z,9
2023-01-20T08:10:07.898Z,11
2023-01-20T08:12:08.011Z,15
2023-01-20T08:14:08.103Z,18
2023-01-20T08:16:08.187Z,8
2023-01-20T08:18:08.411Z,8
2023-01-20T08:20:08.393Z,5
2023-01-20T08:22:08.477Z,8
2023-01-20T08:24:08.586Z,6
2023-01-20T08:26:08.672Z,6
2023-01-20T08:28:08.774Z,5
2023-01-20T08:30:08.912Z,7
2023-01-20T08:32:08.999Z,17
2023-01-20T08:34:09.061Z,13
2023-01-20T08:36:09.204Z,11
2023-01-20T08:38:09.283Z,13
2023-01-20T08:40:09.359Z,14
2023-01-20T08:42:09.577Z,13
2023-01-20T08:44:09.582Z,12
2023-01-20T08:46:09.754Z,8
2023-01-20T08:48:09.788Z,13
2023-01-20T08:50:09.862Z,12
2023-01-20T08:52:12.152Z,9
2023-01-20T08:54:10.302Z,8
2023-01-20T08:56:10.233Z,7
2023-01-20T08:58:10.255Z,5
2023-01-20T09:00:10.369Z,5
2023-01-20T09:02:10.556Z,4
2023-01-20T09:04:10.532Z,4
2023-01-20T09:06:10.645Z,4
2023-01-20T09:08:10.725Z,5
2023-01-20T09:10:10.808Z,6
2023-01-20T09:12:10.887Z,5
2023-01-20T09:14:10.998Z,6
2023-01-20T09:16:11.155Z,9
2023-01-20T09:18:11.187Z,9
2023-01-20T09:20:11.274Z,12
2023-01-20T09:22:11.378Z,5
2023-01-20T09:24:11.443Z,9
2023-01-20T09:26:12.381Z,8
2023-01-20T09:28:11.745Z,10
2023-01-20T09:34:14.489Z,8
2023-01-20T09:36:12.030Z,8
2023-01-20T09:38:12.162Z,10
2023-01-20T09:40:12.296Z,9
2023-01-20T09:42:12.457Z,9
2023-01-20T09:44:12.428Z,10
2023-01-20T09:46:12.533Z,15
2023-01-20T09:48:12.602Z,11
2023-01-20T09:50:12.894Z,11
2023-01-20T09:52:12.833Z,10
2023-01-20T09:54:12.865Z,28
2023-01-20T09:56:12.974Z,18
2023-01-20T09:58:13.069Z,19
2023-01-20T10:00:13.456Z,22
2023-01-20T10:02:13.255Z,18
2023-01-20T10:04:13.349Z,18
2023-01-20T10:06:13.441Z,16
2023-01-20T10:08:13.594Z,18
2023-01-20T10:10:13.840Z,17
2023-01-20T10:12:13.686Z,29
2023-01-20T10:14:13.797Z,30
2023-01-20T10:16:14.001Z,33
2023-01-20T10:18:13.991Z,24
2023-01-20T10:20:14.383Z,52
2023-01-20T10:22:14.174Z,89
2023-01-20T10:24:14.331Z,27
2023-01-20T10:26:14.339Z,16
2023-01-20T10:28:14.435Z,15
2023-01-20T10:30:14.838Z,16
2023-01-20T10:32:14.577Z,23
2023-01-20T10:34:14.669Z,63
2023-01-20T10:38:14.851Z,130
2023-01-20T10:40:14.993Z,32
2023-01-20T10:42:15.047Z,58
2023-01-20T10:44:15.207Z,30
2023-01-20T10:46:15.385Z,30
2023-01-20T10:48:15.335Z,23
2023-01-20T10:50:15.407Z,20
2023-01-20T10:52:15.491Z,37
2023-01-20T10:54:15.590Z,32
2023-01-20T10:56:15.643Z,26
2023-01-20T10:58:15.739Z,21
2023-01-20T11:00:16.220Z,21
2023-01-20T11:02:15.913Z,14
2023-01-20T11:04:15.974Z,18
2023-01-20T11:06:16.055Z,15
2023-01-20T11:08:16.198Z,16
2023-01-20T11:10:16.631Z,17
2023-01-20T11:12:16.321Z,16
2023-01-20T11:14:16.410Z,14
2023-01-20T11:16:16.561Z,10
2023-01-20T11:18:16.638Z,14
2023-01-20T11:20:17.159Z,15
2023-01-20T11:22:16.783Z,16
2023-01-20T11:24:16.918Z,19
2023-01-20T11:26:16.927Z,18
2023-01-20T11:28:17.058Z,15
2023-01-20T11:30:17.580Z,21
2023-01-20T11:32:17.186Z,23
2023-01-20T11:34:17.263Z,15
2023-01-20T11:36:17.366Z,12
2023-01-20T11:38:17.429Z,13
2023-01-20T11:40:17.771Z,13
2023-01-20T11:42:17.593Z,12
2023-01-20T11:44:17.676Z,11
2023-01-20T11:46:17.804Z,11
2023-01-20T11:48:17.863Z,11
2023-01-20T11:50:18.140Z,11
2023-01-20T11:52:18.002Z,11
2023-01-20T11:54:18.083Z,9
2023-01-20T11:56:18.177Z,8
2023-01-20T11:58:18.279Z,8
2023-01-20T12:00:18.356Z,8
2023-01-20T12:02:18.529Z,9
2023-01-20T12:04:18.552Z,10
2023-01-20T12:06:18.613Z,10
2023-01-20T12:08:18.661Z,12
2023-01-20T12:10:18.930Z,20
2023-01-20T12:12:18.847Z,10
2023-01-20T12:14:18.942Z,11
2023-01-20T12:16:19.051Z,18
2023-01-20T12:18:19.129Z,19
2023-01-20T12:20:54.420Z,17
2023-01-20T12:22:49.386Z,40
2023-01-20T12:24:49.508Z,27
2023-01-20T12:26:49.665Z,17
2023-01-20T12:28:49.716Z,15
2023-01-20T12:30:49.864Z,12
2023-01-20T12:32:49.915Z,10
2023-01-20T12:34:50.052Z,7
2023-01-20T12:36:50.151Z,10
2023-01-20T12:38:50.236Z,9
2023-01-20T12:40:50.324Z,10
2023-01-20T12:42:50.437Z,8
2023-01-20T12:46:50.683Z,10
2023-01-20T12:48:50.734Z,14
2023-01-20T12:50:50.813Z,16
2023-01-20T12:52:50.911Z,20
2023-01-20T12:54:51.019Z,20
2023-01-20T12:56:51.168Z,19
2023-01-20T12:58:51.251Z,15
2023-01-20T13:00:51.461Z,15
2023-01-20T13:02:51.605Z,16
2023-01-20T13:04:51.599Z,17
2023-01-20T13:06:51.702Z,14
2023-01-20T13:08:51.768Z,15
2023-01-20T13:10:51.910Z,14
2023-01-20T13:12:52.013Z,13
2023-01-20T13:14:52.186Z,12
2023-01-20T13:16:52.344Z,13
2023-01-20T13:18:52.356Z,33
2023-01-20T13:20:52.455Z,25
2023-01-20T13:22:52.523Z,14
2023-01-20T13:24:52.624Z,11
2023-01-20T13:26:52.801Z,12
2023-01-20T13:28:52.884Z,15
2023-01-20T13:30:53.053Z,33
2023-01-20T13:32:53.103Z,21
2023-01-20T13:34:53.262Z,18
2023-01-20T13:36:53.486Z,17
2023-01-20T13:38:53.432Z,18
2023-01-20T13:40:53.500Z,15
2023-01-20T13:42:53.809Z,11
2023-01-20T13:44:53.764Z,12
2023-01-20T13:46:54.019Z,12
2023-01-20T13:48:53.987Z,24
2023-01-20T13:50:54.067Z,22
2023-01-20T13:52:54.175Z,15
2023-01-20T13:54:54.291Z,15
2023-01-20T13:56:54.469Z,15
2023-01-20T13:58:54.518Z,17
2023-01-20T14:00:54.602Z,10
2023-01-20T14:02:54.832Z,11
2023-01-20T14:04:54.863Z,9
2023-01-20T14:06:55.013Z,8
2023-01-20T14:08:55.079Z,9
2023-01-20T14:10:55.179Z,10
2023-01-20T14:12:55.308Z,8
2023-01-20T14:14:55.434Z,9
2023-01-20T14:16:55.534Z,13
2023-01-20T14:18:55.665Z,14
2023-01-20T14:20:55.755Z,12
2023-01-20T14:22:55.866Z,13
2023-01-20T14:24:55.943Z,9
2023-01-20T14:26:56.118Z,24
2023-01-20T14:28:56.158Z,22
2023-01-20T14:30:56.360Z,15
2023-01-20T14:32:56.372Z,10
2023-01-20T14:34:56.461Z,11
2023-01-20T14:36:56.559Z,9
2023-01-20T14:38:58.214Z,10
2023-01-20T14:40:56.766Z,18
2023-01-20T14:42:56.881Z,16
2023-01-20T14:44:56.956Z,13
2023-01-20T14:46:57.077Z,10
2023-01-20T14:48:57.211Z,10
2023-01-20T14:50:57.282Z,7
2023-01-20T14:52:57.404Z,11
2023-01-20T14:54:57.521Z,11
2023-01-20T14:56:57.629Z,11
2023-01-20T14:58:57.729Z,13
2023-01-20T15:00:57.794Z,23
2023-01-20T15:03:10.380Z,21
2023-01-20T15:04:58.010Z,34
2023-01-20T15:06:58.144Z,53
2023-01-20T15:09:06.749Z,47
2023-01-20T15:10:58.337Z,67
2023-01-20T15:12:58.412Z,217
2023-01-20T15:14:58.515Z,100
2023-01-20T15:16:58.653Z,153
2023-01-20T15:18:58.752Z,115
2023-01-20T15:21:15.441Z,77
2023-01-20T15:22:58.936Z,72
2023-01-20T15:24:59.026Z,50
2023-01-20T15:26:59.167Z,44
2023-01-20T15:28:59.237Z,32
2023-01-20T15:30:59.503Z,25
2023-01-20T15:32:59.464Z,21
2023-01-20T15:34:59.572Z,19
2023-01-20T15:36:59.687Z,17
2023-01-20T15:38:59.788Z,33
2023-01-20T15:40:59.928Z,15
2023-01-20T15:43:00.017Z,18
2023-01-20T15:45:00.160Z,19
2023-01-20T15:47:00.267Z,11
2023-01-20T15:49:00.331Z,13
2023-01-20T15:51:00.561Z,16
2023-01-20T15:53:00.580Z,19
2023-01-20T15:55:00.675Z,20
2023-01-20T15:57:00.811Z,23
2023-01-20T15:59:00.919Z,20
2023-01-20T16:01:00.994Z,21
2023-01-20T16:03:01.222Z,25
2023-01-20T16:05:01.298Z,18
2023-01-20T16:07:01.354Z,12
2023-01-20T16:09:01.462Z,10
2023-01-20T16:11:01.643Z,17
2023-01-20T16:13:01.630Z,19
2023-01-20T16:15:01.784Z,23
2023-01-20T16:17:01.917Z,34
2023-01-20T16:19:01.959Z,29
2023-01-20T16:21:02.043Z,25
2023-01-20T16:23:02.178Z,22
2023-01-20T16:25:02.315Z,21
2023-01-20T16:27:02.360Z,17
2023-01-20T16:29:02.468Z,18
2023-01-20T16:31:02.612Z,23
2023-01-20T16:33:02.669Z,29
2023-01-20T16:35:02.768Z,40
2023-01-20T16:37:02.941Z,28
2023-01-20T16:39:03.025Z,22
2023-01-20T16:41:03.103Z,20
2023-01-20T16:43:03.205Z,20
2023-01-20T16:45:03.325Z,20
2023-01-20T16:47:03.436Z,19
2023-01-20T16:49:03.664Z,19
2023-01-20T16:51:03.711Z,19
2023-01-20T16:53:03.768Z,18
2023-01-20T16:55:03.841Z,18
2023-01-20T16:57:03.969Z,17
2023-01-20T16:59:04.045Z,16
2023-01-20T17:01:04.187Z,15
2023-01-20T17:03:04.279Z,12
2023-01-20T17:05:04.341Z,11
2023-01-20T17:07:04.436Z,15
2023-01-20T17:09:04.564Z,16
2023-01-20T17:11:04.645Z,13
2023-01-20T17:13:04.755Z,12
2023-01-20T17:15:04.864Z,10
2023-01-20T17:17:04.945Z,18
2023-01-20T17:19:05.098Z,16
2023-01-20T17:21:05.176Z,15
2023-01-20T17:23:05.341Z,19
2023-01-20T17:25:05.407Z,26
2023-01-20T17:27:05.463Z,25
2023-01-20T17:29:05.592Z,22
2023-01-20T17:31:05.742Z,21
2023-01-20T17:33:05.798Z,21
2023-01-20T17:37:05.977Z,22
2023-01-20T17:39:06.074Z,22
2023-01-20T17:41:06.173Z,19
2023-01-20T17:43:06.300Z,20
2023-01-20T17:45:06.443Z,24
2023-01-20T17:47:06.474Z,32
2023-01-20T17:49:06.610Z,25
2023-01-20T17:51:06.747Z,24
2023-01-20T17:53:06.809Z,21
2023-01-20T17:55:06.917Z,21
2023-01-20T17:57:06.962Z,25
2023-01-20T17:59:07.073Z,28
2023-01-20T18:01:07.277Z,27
2023-01-20T18:03:07.366Z,25
2023-01-20T18:05:07.415Z,19
2023-01-20T18:07:07.493Z,20
2023-01-20T18:09:07.582Z,19
2023-01-20T18:11:07.714Z,21
2023-01-20T18:13:07.814Z,20
2023-01-20T18:15:07.912Z,20
2023-01-20T18:17:08.116Z,20
2023-01-20T18:19:08.106Z,20
2023-01-20T18:21:08.358Z,19
2023-01-20T18:23:08.331Z,38
2023-01-20T18:25:08.471Z,45
2023-01-20T18:27:08.501Z,41
2023-01-20T18:29:08.639Z,29
2023-01-20T18:31:08.852Z,30
2023-01-20T18:33:08.828Z,26
2023-01-20T18:35:08.902Z,21
2023-01-20T18:37:09.043Z,25
2023-01-20T18:39:09.074Z,24
2023-01-20T18:41:09.177Z,23
2023-01-20T18:43:09.286Z,22
2023-01-20T18:45:09.417Z,20
2023-01-20T18:47:09.480Z,17
2023-01-20T18:49:09.970Z,20
2023-01-20T18:51:09.718Z,20
2023-01-20T18:53:09.794Z,27
2023-01-20T18:55:09.894Z,21
2023-01-20T18:57:10.046Z,23
2023-01-20T18:59:10.091Z,19
2023-01-20T19:01:10.222Z,19
2023-01-20T19:03:10.347Z,20
2023-01-20T19:05:10.412Z,21
2023-01-20T19:07:10.516Z,20
2023-01-20T19:09:10.631Z,36
2023-01-20T19:11:10.727Z,49
2023-01-20T19:13:10.903Z,40
2023-01-20T19:15:10.939Z,37
2023-01-20T19:17:11.037Z,32
2023-01-20T19:19:11.109Z,41
2023-01-20T19:21:11.299Z,59
2023-01-20T19:23:11.333Z,57
2023-01-20T19:25:11.392Z,44
2023-01-20T19:27:11.492Z,45
2023-01-20T19:29:11.574Z,47
2023-01-20T19:31:11.831Z,59
2023-01-20T19:33:11.797Z,40
2023-01-20T19:35:11.880Z,47
2023-01-20T19:37:11.959Z,43
2023-01-20T19:39:12.080Z,39
2023-01-20T19:41:12.155Z,39
2023-01-20T19:43:12.253Z,43
2023-01-20T19:45:12.355Z,40
2023-01-20T19:47:12.446Z,34
2023-01-20T19:49:12.575Z,31
2023-01-20T19:51:12.727Z,26
2023-01-20T19:53:12.780Z,22
2023-01-20T19:55:12.968Z,24
2023-01-20T19:57:12.981Z,24
2023-01-20T19:59:13.078Z,35
2023-01-20T20:01:13.186Z,46
2023-01-20T20:03:13.236Z,56
2023-01-20T20:05:13.334Z,36
2023-01-20T20:07:13.464Z,20
2023-01-20T20:09:13.562Z,29
2023-01-20T20:11:13.651Z,35
2023-01-20T20:13:13.845Z,33
2023-01-20T20:15:13.839Z,73
2023-01-20T20:17:13.961Z,44
2023-01-20T20:19:14.051Z,64
2023-01-20T20:21:14.113Z,114
2023-01-20T20:23:14.264Z,102
2023-01-20T20:25:14.331Z,79
2023-01-20T20:27:14.414Z,60
2023-01-20T20:29:14.544Z,42
2023-01-20T20:31:14.714Z,35
2023-01-20T20:33:14.699Z,32
2023-01-20T20:35:14.769Z,30
2023-01-20T20:37:14.892Z,30
2023-01-20T20:39:15.006Z,31
2023-01-20T20:41:15.097Z,29
2023-01-20T20:43:15.253Z,35
2023-01-20T20:45:15.301Z,28
2023-01-20T20:47:15.413Z,26
2023-01-20T20:49:15.506Z,25
2023-01-20T20:51:15.618Z,22
2023-01-20T20:53:15.846Z,21
2023-01-20T20:55:15.732Z,20
2023-01-20T20:57:15.819Z,21
2023-01-20T20:59:16.054Z,22
2023-01-20T21:01:16.085Z,24
2023-01-20T21:03:16.141Z,23
2023-01-20T21:05:16.240Z,24
2023-01-20T21:07:16.348Z,24
2023-01-20T21:09:16.427Z,24
2023-01-20T21:11:16.546Z,23
2023-01-20T21:13:16.599Z,24
2023-01-20T21:15:16.805Z,31
2023-01-20T21:17:16.784Z,29
2023-01-20T21:19:16.935Z,32
2023-01-20T21:21:17.076Z,27
2023-01-20T21:23:17.115Z,30
2023-01-20T21:25:17.191Z,29
2023-01-20T21:27:17.299Z,29
2023-01-20T21:29:17.393Z,35
2023-01-20T21:31:17.517Z,32
2023-01-20T21:33:17.614Z,32
2023-01-20T21:35:17.683Z,34
2023-01-20T21:37:17.786Z,34
2023-01-20T21:39:17.871Z,32
2023-01-20T21:41:18.004Z,33
2023-01-20T21:43:18.070Z,27
2023-01-20T21:45:18.118Z,27
2023-01-20T21:47:18.226Z,25
2023-01-20T21:49:18.320Z,25
2023-01-20T21:51:18.507Z,29
2023-01-20T21:53:18.502Z,26
2023-01-20T21:55:18.595Z,30
2023-01-20T21:57:18.689Z,26
2023-01-20T21:59:18.768Z,26
2023-01-20T22:01:18.862Z,25
2023-01-20T22:03:19.012Z,26
2023-01-20T22:05:19.058Z,26
2023-01-20T22:07:19.165Z,26
2023-01-20T22:11:19.367Z,25
2023-01-20T22:13:19.535Z,25
2023-01-20T22:15:19.499Z,25
2023-01-20T22:17:19.626Z,26
2023-01-20T22:19:19.689Z,26
2023-01-20T22:21:19.757Z,26
2023-01-20T22:23:19.890Z,27
2023-01-20T22:25:19.941Z,29
2023-01-20T22:27:20.055Z,26
2023-01-20T22:29:20.142Z,27
2023-01-20T22:31:20.268Z,29
2023-01-20T22:33:20.344Z,28
2023-01-20T22:35:20.415Z,28
2023-01-20T22:37:20.542Z,28
2023-01-20T22:39:20.618Z,30
2023-01-20T22:41:20.743Z,31
2023-01-20T22:43:20.904Z,29
2023-01-20T22:45:20.886Z,30
2023-01-20T22:47:20.946Z,30
2023-01-20T22:49:21.029Z,28
2023-01-20T22:51:21.241Z,28
2023-01-20T22:53:21.225Z,26
2023-01-20T22:55:21.323Z,27
2023-01-20T22:57:21.369Z,26
2023-01-20T22:59:21.460Z,25
2023-01-20T23:01:21.610Z,23
2023-01-20T23:03:21.647Z,21
2023-01-20T23:05:21.736Z,22
2023-01-20T23:07:21.801Z,21
2023-01-20T23:09:21.908Z,22
2023-01-20T23:11:22.009Z,22
2023-01-20T23:13:22.094Z,22
2023-01-20T23:15:22.165Z,21
2023-01-20T23:17:22.249Z,22
2023-01-20T23:19:22.372Z,20
2023-01-20T23:21:22.429Z,19
2023-01-20T23:23:22.523Z,19
2023-01-20T23:25:22.623Z,22
2023-01-20T23:27:22.732Z,24
2023-01-20T23:29:22.777Z,27
2023-01-20T23:31:22.969Z,29
2023-01-20T23:33:22.954Z,31
2023-01-20T23:35:23.044Z,34
2023-01-20T23:37:23.111Z,32
2023-01-20T23:39:23.225Z,31
2023-01-20T23:41:23.336Z,32
2023-01-20T23:43:23.413Z,32
2023-01-20T23:45:23.444Z,34
2023-01-20T23:47:23.643Z,34
2023-01-20T23:49:23.646Z,32
2023-01-20T23:51:23.796Z,27
2023-01-20T23:53:23.840Z,24
2023-01-20T23:55:23.928Z,28
2023-01-20T23:57:24.015Z,29
2023-01-20T23:59:24.074Z,32
